首页
METAR-TAF:

METAR-TAF

机场 :

Four Corners Regional Airport

Farmington, 新墨西哥州, 美国

纬度: 36-44-37N, 经度: 108-13-45W, 海拔: 1677米

当前天气观测

该预报发布于1小时和11分钟前的11:53 UTC
风速5节,风向
温度 8°C
湿度 36%
气压 1021 hPa
能見度: 16.1公里
天空无云

METAR: KFMN 271153Z 08005KT 10SM CLR 08/M06 A3016 RMK AO2 SLP172 T00831056 10150 20078 53009 $

时间: 07:04 (13:04 UTC)

预报

该预报发布于1小时和24分钟前的11:40 UTC
预报有效从27日的 12点(UTC)到 28日的 12点(UTC)
风速7节,风向
能見度: 10公里
少量云层高于25000英尺
从 27日的 1900点(UTC)
风速8节,风向西
能見度: 10公里
散云层高于25000英尺
从 28日的 0500点(UTC)
风速7节,风向东转东北
能見度: 10公里
散云层高于25000英尺

TAF: KFMN 271140Z 2712/2812 09007KT P6SM FEW250 FM271900 27008KT P6SM SCT250 FM280500 07007KT P6SM SCT250

超过4000个机场的气象观测和天气预报(METAR&TAF报告)。

可查询的气象台以黄色和红色小点在地图上表示。

将鼠标移到小点上方,可查看气象台名称。

然后点击查看天气观测和预报。

如需切换地图:点击带黑十字的绿色按钮放大地图;点击带横线的绿色按钮缩小地图;或者点击绿色箭头查看邻近地区的地图。


METAR-TAF: